Palmetto, FL

6:51 PM EST on December 26, 2014 (GMT -0500)
KFLPALME6 | Change Station
CLOSE
Current Station
Personal Weather Station
Location: Palmetto, FL
Elevation: 30 ft
Nearby Weather Stations

Elev 30 ft 27.53 °N, 82.57 °W | Updated 1 minute ago

Overcast
Overcast
68.7 °F
Feels Like 68.7 °F
N
2.0
Wind Variable Wind from NNE
Gusts 6.0 mph

Today
High -- | Low -- °F
--% Chance of Precip.
Yesterday
High -- | Low -- °F
Precip. -- in
7:18 AM 5:43 PM
Waxing Crescent, 30% visible
Pressure 30.17 in
Visibility 10.0 miles
Clouds Overcast 2600 ft
Dew Point 58 °F
Humidity 68%
Rainfall 0.00 in
Snow Depth Not available.
UV 0 out of 12
Pollen 7.00 out of 12
Air Quality Not available.
Flu Activity Not available.
METAR KSRQ 262253Z 05006KT 10SM OVC026 21/13 A3018 RMK AO2 SLP217 T02060128

More Conditions Fewer Conditions

Pressure 30.17 in
Visibility 10.0 miles
Clouds Overcast 2600 ft
Dew Point 58 °F
Humidity 68%
Rainfall 0.00 in
Snow Depth Not available.
UV 0 out of 12
Pollen 7.00 out of 12
Air Quality Not available.
Flu Activity Not available.
METAR KSRQ 262253Z 05006KT 10SM OVC026 21/13 A3018 RMK AO2 SLP217 T02060128

More Conditions Fewer Conditions

10-Day Weather Forecast

Almanac

Astronomy

Dec. 26, 2014 Rise Set
Actual Time
Civil Twilight
Nautical Twilight
Astronomical Twilight
Moon
Length of Visible Light
Length of Day
Tomorrow will be .
, % of the Moon is Illuminated

Today's Extremes

State Highs State Lows

Community

WunderPhotos

Upload Photos

1,780,769 photos uploaded!

WunderBlogs® & News

Nearby

Air Quality

  Air Quality AQ Index Pollutant
Not available.

Snow Depth

Station Depth Elevation

Earthquake Activity

City Distance Mag. Time & Date
Minimum magnitude displayed is 2.5.

Coastal Water Temperatures

Place Temperature

Nearby Weather Stations